sensor_id;sensor_type;location;lat;lon;timestamp;pressure;altitude;pressure_sealevel;temperature;humidity
48888;BME280;42598;53.802;-1.632;2023-02-26T00:02:01;101658.03;;;4.50;60.12
48888;BME280;42598;53.802;-1.632;2023-02-26T00:04:28;101661.77;;;4.60;60.16
48888;BME280;42598;53.802;-1.632;2023-02-26T00:06:56;101660.50;;;4.02;61.40
48888;BME280;42598;53.802;-1.632;2023-02-26T00:09:23;101665.94;;;3.93;62.51
48888;BME280;42598;53.802;-1.632;2023-02-26T00:11:51;101671.63;;;3.41;64.20
48888;BME280;42598;53.802;-1.632;2023-02-26T00:14:19;101674.24;;;3.24;65.96
48888;BME280;42598;53.802;-1.632;2023-02-26T00:16:50;101677.17;;;3.40;66.24
48888;BME280;42598;53.802;-1.632;2023-02-26T00:19:22;101677.68;;;3.16;66.77
48888;BME280;42598;53.802;-1.632;2023-02-26T00:21:50;101668.92;;;4.17;63.93
48888;BME280;42598;53.802;-1.632;2023-02-26T00:24:17;101676.59;;;3.05;67.86
48888;BME280;42598;53.802;-1.632;2023-02-26T00:26:45;101670.92;;;4.05;65.22
48888;BME280;42598;53.802;-1.632;2023-02-26T00:29:12;101676.13;;;2.97;67.61
48888;BME280;42598;53.802;-1.632;2023-02-26T00:31:40;101667.57;;;3.80;65.47
48888;BME280;42598;53.802;-1.632;2023-02-26T00:34:10;101671.08;;;4.54;63.51
48888;BME280;42598;53.802;-1.632;2023-02-26T00:36:45;101668.91;;;4.52;62.70
48888;BME280;42598;53.802;-1.632;2023-02-26T00:39:29;101666.90;;;4.22;62.82
48888;BME280;42598;53.802;-1.632;2023-02-26T00:42:00;101664.90;;;4.87;61.75
48888;BME280;42598;53.802;-1.632;2023-02-26T00:44:28;101666.30;;;4.29;62.21
48888;BME280;42598;53.802;-1.632;2023-02-26T00:47:00;101665.52;;;4.80;60.47
48888;BME280;42598;53.802;-1.632;2023-02-26T00:49:41;101664.78;;;4.07;61.38
48888;BME280;42598;53.802;-1.632;2023-02-26T00:52:14;101663.24;;;4.53;60.63
48888;BME280;42598;53.802;-1.632;2023-02-26T00:54:42;101662.29;;;3.92;61.11
48888;BME280;42598;53.802;-1.632;2023-02-26T00:57:10;101665.32;;;4.51;59.51
48888;BME280;42598;53.802;-1.632;2023-02-26T00:59:37;101670.84;;;4.34;60.41
48888;BME280;42598;53.802;-1.632;2023-02-26T01:02:04;101672.56;;;3.41;63.12
48888;BME280;42598;53.802;-1.632;2023-02-26T01:04:31;101668.64;;;4.29;61.63
48888;BME280;42598;53.802;-1.632;2023-02-26T01:06:59;101670.80;;;4.59;60.04
48888;BME280;42598;53.802;-1.632;2023-02-26T01:09:28;101678.39;;;4.56;59.90
48888;BME280;42598;53.802;-1.632;2023-02-26T01:11:58;101674.94;;;5.07;59.28
48888;BME280;42598;53.802;-1.632;2023-02-26T01:14:27;101682.37;;;4.37;59.64
48888;BME280;42598;53.802;-1.632;2023-02-26T01:17:01;101691.52;;;4.97;59.57
48888;BME280;42598;53.802;-1.632;2023-02-26T01:19:35;101700.43;;;4.78;59.97
48888;BME280;42598;53.802;-1.632;2023-02-26T01:22:11;101705.28;;;4.60;60.02
48888;BME280;42598;53.802;-1.632;2023-02-26T01:24:40;101707.51;;;4.47;60.56
48888;BME280;42598;53.802;-1.632;2023-02-26T01:27:08;101713.72;;;5.28;59.07
48888;BME280;42598;53.802;-1.632;2023-02-26T01:29:35;101721.17;;;4.30;60.95
48888;BME280;42598;53.802;-1.632;2023-02-26T01:32:06;101724.27;;;3.67;64.43
48888;BME280;42598;53.802;-1.632;2023-02-26T01:34:38;101729.36;;;4.79;63.86
48888;BME280;42598;53.802;-1.632;2023-02-26T01:37:20;101741.21;;;4.48;64.24
48888;BME280;42598;53.802;-1.632;2023-02-26T01:39:59;101724.77;;;4.21;66.01
48888;BME280;42598;53.802;-1.632;2023-02-26T01:42:31;101718.71;;;2.95;72.13
48888;BME280;42598;53.802;-1.632;2023-02-26T01:45:10;101727.38;;;3.50;70.98
48888;BME280;42598;53.802;-1.632;2023-02-26T01:47:42;101723.19;;;3.82;70.39
48888;BME280;42598;53.802;-1.632;2023-02-26T01:50:17;101723.89;;;4.28;69.19
48888;BME280;42598;53.802;-1.632;2023-02-26T01:53:21;101727.73;;;4.63;70.29
48888;BME280;42598;53.802;-1.632;2023-02-26T01:55:51;101729.42;;;3.44;71.68
48888;BME280;42598;53.802;-1.632;2023-02-26T01:58:22;101733.29;;;3.84;70.57
48888;BME280;42598;53.802;-1.632;2023-02-26T02:00:50;101727.99;;;4.18;68.56
48888;BME280;42598;53.802;-1.632;2023-02-26T02:03:20;101730.86;;;4.74;65.63
48888;BME280;42598;53.802;-1.632;2023-02-26T02:05:51;101732.58;;;4.77;65.11
48888;BME280;42598;53.802;-1.632;2023-02-26T02:08:21;101734.88;;;3.99;66.80
48888;BME280;42598;53.802;-1.632;2023-02-26T02:10:49;101738.19;;;4.44;66.21
48888;BME280;42598;53.802;-1.632;2023-02-26T02:13:28;101738.03;;;4.47;66.99
48888;BME280;42598;53.802;-1.632;2023-02-26T02:16:06;101738.67;;;4.30;67.35
48888;BME280;42598;53.802;-1.632;2023-02-26T02:18:42;101743.37;;;3.96;69.06
48888;BME280;42598;53.802;-1.632;2023-02-26T02:21:27;101746.94;;;4.00;70.30
48888;BME280;42598;53.802;-1.632;2023-02-26T02:24:00;101742.57;;;2.99;72.72
48888;BME280;42598;53.802;-1.632;2023-02-26T02:27:09;101741.52;;;4.40;69.34
48888;BME280;42598;53.802;-1.632;2023-02-26T02:31:54;101749.47;;;4.31;70.46
48888;BME280;42598;53.802;-1.632;2023-02-26T02:34:28;101747.54;;;4.83;67.16
48888;BME280;42598;53.802;-1.632;2023-02-26T02:36:58;101754.61;;;4.12;68.06
48888;BME280;42598;53.802;-1.632;2023-02-26T02:39:29;101755.70;;;4.20;67.92
48888;BME280;42598;53.802;-1.632;2023-02-26T02:42:02;101751.22;;;4.48;66.14
48888;BME280;42598;53.802;-1.632;2023-02-26T02:44:33;101756.39;;;4.59;66.53
48888;BME280;42598;53.802;-1.632;2023-02-26T02:47:03;101760.47;;;4.27;66.77
48888;BME280;42598;53.802;-1.632;2023-02-26T02:49:36;101759.21;;;4.51;66.06
48888;BME280;42598;53.802;-1.632;2023-02-26T02:52:12;101755.18;;;4.35;67.47
48888;BME280;42598;53.802;-1.632;2023-02-26T02:54:45;101766.43;;;3.31;71.44
48888;BME280;42598;53.802;-1.632;2023-02-26T02:57:18;101767.70;;;3.58;73.07
48888;BME280;42598;53.802;-1.632;2023-02-26T02:59:48;101765.33;;;3.98;69.96
48888;BME280;42598;53.802;-1.632;2023-02-26T03:02:21;101770.74;;;4.09;70.58
48888;BME280;42598;53.802;-1.632;2023-02-26T03:04:51;101766.05;;;3.85;69.06
48888;BME280;42598;53.802;-1.632;2023-02-26T03:07:18;101768.15;;;4.51;69.28
48888;BME280;42598;53.802;-1.632;2023-02-26T03:09:45;101764.55;;;4.65;68.35
48888;BME280;42598;53.802;-1.632;2023-02-26T03:12:12;101771.77;;;3.03;73.81
48888;BME280;42598;53.802;-1.632;2023-02-26T03:14:39;101771.09;;;3.37;73.02
48888;BME280;42598;53.802;-1.632;2023-02-26T03:17:19;101774.74;;;4.43;71.06
48888;BME280;42598;53.802;-1.632;2023-02-26T03:19:58;101767.19;;;4.69;68.63
48888;BME280;42598;53.802;-1.632;2023-02-26T03:22:33;101765.10;;;4.47;69.71
48888;BME280;42598;53.802;-1.632;2023-02-26T03:25:06;101767.18;;;4.07;70.02
48888;BME280;42598;53.802;-1.632;2023-02-26T03:27:40;101766.60;;;4.59;69.58
48888;BME280;42598;53.802;-1.632;2023-02-26T03:30:15;101767.67;;;4.37;68.77
48888;BME280;42598;53.802;-1.632;2023-02-26T03:32:52;101770.92;;;4.37;69.21
48888;BME280;42598;53.802;-1.632;2023-02-26T03:35:28;101772.53;;;5.05;68.13
48888;BME280;42598;53.802;-1.632;2023-02-26T03:37:59;101772.43;;;5.50;65.10
48888;BME280;42598;53.802;-1.632;2023-02-26T03:40:33;101772.80;;;5.48;64.63
48888;BME280;42598;53.802;-1.632;2023-02-26T03:43:03;101779.94;;;5.30;65.43
48888;BME280;42598;53.802;-1.632;2023-02-26T03:45:33;101779.27;;;4.31;68.50
48888;BME280;42598;53.802;-1.632;2023-02-26T03:48:04;101777.60;;;5.19;66.28
48888;BME280;42598;53.802;-1.632;2023-02-26T03:50:36;101775.19;;;5.03;65.08
48888;BME280;42598;53.802;-1.632;2023-02-26T03:53:09;101776.44;;;5.48;64.16
48888;BME280;42598;53.802;-1.632;2023-02-26T03:55:42;101775.81;;;5.18;65.40
48888;BME280;42598;53.802;-1.632;2023-02-26T03:58:11;101777.19;;;5.11;65.53
48888;BME280;42598;53.802;-1.632;2023-02-26T04:00:41;101779.29;;;4.51;68.23
48888;BME280;42598;53.802;-1.632;2023-02-26T04:03:13;101782.64;;;4.07;68.68
48888;BME280;42598;53.802;-1.632;2023-02-26T04:05:47;101790.92;;;4.12;69.34
48888;BME280;42598;53.802;-1.632;2023-02-26T04:08:15;101804.68;;;4.29;68.71
48888;BME280;42598;53.802;-1.632;2023-02-26T04:10:46;101799.84;;;4.37;68.81
48888;BME280;42598;53.802;-1.632;2023-02-26T04:13:18;101807.80;;;4.35;69.87
48888;BME280;42598;53.802;-1.632;2023-02-26T04:15:44;101815.22;;;3.71;71.03
48888;BME280;42598;53.802;-1.632;2023-02-26T04:18:12;101816.73;;;4.01;69.78
48888;BME280;42598;53.802;-1.632;2023-02-26T04:20:39;101817.13;;;3.49;71.17
48888;BME280;42598;53.802;-1.632;2023-02-26T04:23:06;101825.28;;;4.36;68.97
48888;BME280;42598;53.802;-1.632;2023-02-26T04:25:32;101828.53;;;4.10;69.32
48888;BME280;42598;53.802;-1.632;2023-02-26T04:27:59;101829.53;;;4.75;66.75
48888;BME280;42598;53.802;-1.632;2023-02-26T04:30:26;101836.17;;;4.01;70.45
48888;BME280;42598;53.802;-1.632;2023-02-26T04:32:53;101840.67;;;4.68;69.15
48888;BME280;42598;53.802;-1.632;2023-02-26T04:35:20;101837.03;;;5.33;67.33
48888;BME280;42598;53.802;-1.632;2023-02-26T04:37:47;101841.20;;;5.62;65.01
48888;BME280;42598;53.802;-1.632;2023-02-26T04:40:14;101848.29;;;4.64;67.63
48888;BME280;42598;53.802;-1.632;2023-02-26T04:42:41;101840.87;;;5.15;67.09
48888;BME280;42598;53.802;-1.632;2023-02-26T04:45:08;101843.25;;;5.31;65.45
48888;BME280;42598;53.802;-1.632;2023-02-26T04:47:36;101849.37;;;4.61;68.08
48888;BME280;42598;53.802;-1.632;2023-02-26T04:50:04;101842.52;;;4.95;66.41
48888;BME280;42598;53.802;-1.632;2023-02-26T04:52:31;101846.40;;;3.97;69.98
48888;BME280;42598;53.802;-1.632;2023-02-26T04:54:59;101842.14;;;5.01;67.11
48888;BME280;42598;53.802;-1.632;2023-02-26T04:57:25;101847.64;;;4.58;68.48
48888;BME280;42598;53.802;-1.632;2023-02-26T04:59:52;101844.77;;;5.41;65.75
48888;BME280;42598;53.802;-1.632;2023-02-26T05:02:19;101850.61;;;4.92;67.18
48888;BME280;42598;53.802;-1.632;2023-02-26T05:04:46;101853.09;;;4.73;68.48
48888;BME280;42598;53.802;-1.632;2023-02-26T05:07:13;101855.41;;;4.34;69.21
48888;BME280;42598;53.802;-1.632;2023-02-26T05:09:40;101858.90;;;4.50;68.13
48888;BME280;42598;53.802;-1.632;2023-02-26T05:12:07;101860.68;;;4.64;68.55
48888;BME280;42598;53.802;-1.632;2023-02-26T05:14:33;101862.51;;;3.83;72.20
48888;BME280;42598;53.802;-1.632;2023-02-26T05:17:00;101860.36;;;4.28;70.55
48888;BME280;42598;53.802;-1.632;2023-02-26T05:19:27;101859.46;;;4.12;70.41
48888;BME280;42598;53.802;-1.632;2023-02-26T05:21:54;101866.44;;;4.27;70.37
48888;BME280;42598;53.802;-1.632;2023-02-26T05:24:21;101869.59;;;4.94;67.77
48888;BME280;42598;53.802;-1.632;2023-02-26T05:26:48;101864.63;;;5.49;66.94
48888;BME280;42598;53.802;-1.632;2023-02-26T05:29:15;101868.25;;;5.22;65.43
48888;BME280;42598;53.802;-1.632;2023-02-26T05:31:43;101880.43;;;4.81;66.45
48888;BME280;42598;53.802;-1.632;2023-02-26T05:34:10;101880.00;;;4.95;66.50
48888;BME280;42598;53.802;-1.632;2023-02-26T05:36:37;101884.33;;;4.60;67.02
48888;BME280;42598;53.802;-1.632;2023-02-26T05:39:04;101878.88;;;5.34;65.45
48888;BME280;42598;53.802;-1.632;2023-02-26T05:41:31;101881.12;;;5.49;64.43
48888;BME280;42598;53.802;-1.632;2023-02-26T05:43:58;101875.92;;;6.16;62.35
48888;BME280;42598;53.802;-1.632;2023-02-26T05:46:25;101877.48;;;5.61;63.34
48888;BME280;42598;53.802;-1.632;2023-02-26T05:48:52;101879.78;;;5.01;64.44
48888;BME280;42598;53.802;-1.632;2023-02-26T05:51:19;101884.65;;;5.52;63.62
48888;BME280;42598;53.802;-1.632;2023-02-26T05:53:46;101887.95;;;5.60;63.49
48888;BME280;42598;53.802;-1.632;2023-02-26T05:56:13;101889.10;;;5.87;61.43
48888;BME280;42598;53.802;-1.632;2023-02-26T05:58:40;101894.14;;;5.61;63.98
48888;BME280;42598;53.802;-1.632;2023-02-26T06:01:07;101897.94;;;5.40;64.15
48888;BME280;42598;53.802;-1.632;2023-02-26T06:03:34;101897.36;;;5.60;63.48
48888;BME280;42598;53.802;-1.632;2023-02-26T06:06:01;101897.79;;;6.35;61.17
48888;BME280;42598;53.802;-1.632;2023-02-26T06:08:28;101898.67;;;5.91;62.51
48888;BME280;42598;53.802;-1.632;2023-02-26T06:10:55;101909.24;;;4.61;65.50
48888;BME280;42598;53.802;-1.632;2023-02-26T06:13:22;101904.91;;;6.22;61.54
48888;BME280;42598;53.802;-1.632;2023-02-26T06:15:49;101906.35;;;5.40;62.77
48888;BME280;42598;53.802;-1.632;2023-02-26T06:18:17;101907.05;;;5.21;62.62
48888;BME280;42598;53.802;-1.632;2023-02-26T06:20:44;101913.20;;;6.19;60.66
48888;BME280;42598;53.802;-1.632;2023-02-26T06:23:11;101913.34;;;5.80;60.19
48888;BME280;42598;53.802;-1.632;2023-02-26T06:25:38;101911.93;;;5.17;61.86
48888;BME280;42598;53.802;-1.632;2023-02-26T06:28:05;101914.37;;;5.35;62.64
48888;BME280;42598;53.802;-1.632;2023-02-26T06:30:33;101922.13;;;5.86;61.45
48888;BME280;42598;53.802;-1.632;2023-02-26T06:33:00;101925.97;;;5.25;63.46
48888;BME280;42598;53.802;-1.632;2023-02-26T06:35:27;101932.61;;;5.11;64.36
48888;BME280;42598;53.802;-1.632;2023-02-26T06:37:55;101935.98;;;5.19;64.93
48888;BME280;42598;53.802;-1.632;2023-02-26T06:40:22;101944.51;;;5.10;65.32
48888;BME280;42598;53.802;-1.632;2023-02-26T06:42:49;101937.38;;;5.58;64.30
48888;BME280;42598;53.802;-1.632;2023-02-26T06:45:16;101939.97;;;5.75;64.33
48888;BME280;42598;53.802;-1.632;2023-02-26T06:47:44;101946.34;;;4.95;66.03
48888;BME280;42598;53.802;-1.632;2023-02-26T06:50:11;101947.52;;;4.68;67.22
48888;BME280;42598;53.802;-1.632;2023-02-26T06:52:39;101948.75;;;4.31;70.01
48888;BME280;42598;53.802;-1.632;2023-02-26T06:55:07;101950.90;;;4.72;70.21
48888;BME280;42598;53.802;-1.632;2023-02-26T06:57:35;101952.08;;;4.69;70.18
48888;BME280;42598;53.802;-1.632;2023-02-26T07:00:04;101950.58;;;5.28;66.92
48888;BME280;42598;53.802;-1.632;2023-02-26T07:02:32;101948.92;;;5.50;66.63
48888;BME280;42598;53.802;-1.632;2023-02-26T07:04:59;101950.55;;;5.62;67.16
48888;BME280;42598;53.802;-1.632;2023-02-26T07:07:26;101957.76;;;5.44;66.31
48888;BME280;42598;53.802;-1.632;2023-02-26T07:09:54;101962.56;;;5.45;66.19
48888;BME280;42598;53.802;-1.632;2023-02-26T07:12:21;101963.38;;;5.86;63.94
48888;BME280;42598;53.802;-1.632;2023-02-26T07:14:48;101966.19;;;6.26;62.45
48888;BME280;42598;53.802;-1.632;2023-02-26T07:17:14;101965.37;;;6.87;60.07
48888;BME280;42598;53.802;-1.632;2023-02-26T07:19:41;101970.35;;;5.83;62.88
48888;BME280;42598;53.802;-1.632;2023-02-26T07:22:09;101973.66;;;6.05;61.94
48888;BME280;42598;53.802;-1.632;2023-02-26T07:24:35;101978.59;;;5.29;66.65
48888;BME280;42598;53.802;-1.632;2023-02-26T07:27:03;101982.56;;;5.66;63.69
48888;BME280;42598;53.802;-1.632;2023-02-26T07:29:30;101984.06;;;6.73;61.37
48888;BME280;42598;53.802;-1.632;2023-02-26T07:31:57;101993.89;;;6.53;61.37
48888;BME280;42598;53.802;-1.632;2023-02-26T07:34:23;101998.60;;;4.98;65.06
48888;BME280;42598;53.802;-1.632;2023-02-26T07:36:50;101995.91;;;5.93;64.42
48888;BME280;42598;53.802;-1.632;2023-02-26T07:39:17;101996.58;;;5.75;62.87
48888;BME280;42598;53.802;-1.632;2023-02-26T07:41:44;101997.72;;;6.95;60.80
48888;BME280;42598;53.802;-1.632;2023-02-26T07:44:12;102007.59;;;7.07;60.56
48888;BME280;42598;53.802;-1.632;2023-02-26T07:46:38;102002.85;;;6.33;61.57
48888;BME280;42598;53.802;-1.632;2023-02-26T07:49:05;102003.86;;;6.22;61.40
48888;BME280;42598;53.802;-1.632;2023-02-26T07:51:32;101998.21;;;6.47;62.49
48888;BME280;42598;53.802;-1.632;2023-02-26T07:53:59;102006.44;;;6.28;62.26
48888;BME280;42598;53.802;-1.632;2023-02-26T07:56:26;102004.03;;;7.03;59.97
48888;BME280;42598;53.802;-1.632;2023-02-26T07:58:53;102008.44;;;6.29;61.26
48888;BME280;42598;53.802;-1.632;2023-02-26T08:01:20;102012.99;;;4.93;65.05
48888;BME280;42598;53.802;-1.632;2023-02-26T08:03:47;102008.89;;;6.01;63.34
48888;BME280;42598;53.802;-1.632;2023-02-26T08:06:14;102013.26;;;5.79;63.21
48888;BME280;42598;53.802;-1.632;2023-02-26T08:08:41;102014.97;;;5.93;63.05
48888;BME280;42598;53.802;-1.632;2023-02-26T08:11:08;102020.99;;;6.67;61.48
48888;BME280;42598;53.802;-1.632;2023-02-26T08:13:36;102027.82;;;6.18;62.03
48888;BME280;42598;53.802;-1.632;2023-02-26T08:16:03;102025.83;;;6.20;62.33
48888;BME280;42598;53.802;-1.632;2023-02-26T08:18:30;102029.83;;;6.45;61.18
48888;BME280;42598;53.802;-1.632;2023-02-26T08:20:58;102037.58;;;5.68;63.80
48888;BME280;42598;53.802;-1.632;2023-02-26T08:23:25;102039.40;;;6.92;60.72
48888;BME280;42598;53.802;-1.632;2023-02-26T08:25:59;102044.08;;;6.18;62.31
48888;BME280;42598;53.802;-1.632;2023-02-26T08:28:27;102044.76;;;4.86;65.63
48888;BME280;42598;53.802;-1.632;2023-02-26T08:30:54;102046.67;;;5.92;63.13
48888;BME280;42598;53.802;-1.632;2023-02-26T08:33:21;102052.75;;;5.44;64.85
48888;BME280;42598;53.802;-1.632;2023-02-26T08:35:49;102045.83;;;6.62;61.97
48888;BME280;42598;53.802;-1.632;2023-02-26T08:38:15;102052.97;;;5.77;63.67
48888;BME280;42598;53.802;-1.632;2023-02-26T08:40:43;102046.99;;;6.42;62.72
48888;BME280;42598;53.802;-1.632;2023-02-26T08:43:10;102046.33;;;7.59;59.73
48888;BME280;42598;53.802;-1.632;2023-02-26T08:45:37;102055.87;;;7.43;60.07
48888;BME280;42598;53.802;-1.632;2023-02-26T08:48:04;102064.36;;;6.45;61.33
48888;BME280;42598;53.802;-1.632;2023-02-26T08:50:31;102068.47;;;6.20;63.35
48888;BME280;42598;53.802;-1.632;2023-02-26T08:52:59;102068.43;;;6.45;61.23
48888;BME280;42598;53.802;-1.632;2023-02-26T08:55:26;102075.43;;;6.34;61.86
48888;BME280;42598;53.802;-1.632;2023-02-26T08:57:52;102083.47;;;7.16;60.64
48888;BME280;42598;53.802;-1.632;2023-02-26T09:00:20;102080.94;;;5.98;62.57
48888;BME280;42598;53.802;-1.632;2023-02-26T09:02:48;102085.21;;;5.58;64.40
48888;BME280;42598;53.802;-1.632;2023-02-26T09:05:16;102076.89;;;6.46;63.05
48888;BME280;42598;53.802;-1.632;2023-02-26T09:07:43;102084.07;;;6.38;63.80
48888;BME280;42598;53.802;-1.632;2023-02-26T09:10:12;102089.07;;;6.01;64.07
48888;BME280;42598;53.802;-1.632;2023-02-26T09:12:40;102094.03;;;6.15;64.32
48888;BME280;42598;53.802;-1.632;2023-02-26T09:15:09;102089.48;;;6.56;62.62
48888;BME280;42598;53.802;-1.632;2023-02-26T09:17:37;102094.49;;;6.89;61.53
48888;BME280;42598;53.802;-1.632;2023-02-26T09:20:05;102093.19;;;7.53;60.64
48888;BME280;42598;53.802;-1.632;2023-02-26T09:22:32;102100.29;;;6.61;63.08
48888;BME280;42598;53.802;-1.632;2023-02-26T09:24:59;102100.19;;;6.82;62.57
48888;BME280;42598;53.802;-1.632;2023-02-26T09:27:26;102103.68;;;7.04;61.34
48888;BME280;42598;53.802;-1.632;2023-02-26T09:29:53;102107.23;;;7.41;60.21
48888;BME280;42598;53.802;-1.632;2023-02-26T09:32:20;102101.13;;;8.00;58.98
48888;BME280;42598;53.802;-1.632;2023-02-26T09:34:48;102104.98;;;6.92;60.44
48888;BME280;42598;53.802;-1.632;2023-02-26T09:37:15;102102.32;;;6.78;60.65
48888;BME280;42598;53.802;-1.632;2023-02-26T09:39:41;102100.83;;;7.83;58.01
48888;BME280;42598;53.802;-1.632;2023-02-26T09:42:18;102093.97;;;7.95;56.41
48888;BME280;42598;53.802;-1.632;2023-02-26T09:44:50;102103.17;;;8.86;55.72
48888;BME280;42598;53.802;-1.632;2023-02-26T09:47:22;102102.47;;;9.73;51.05
48888;BME280;42598;53.802;-1.632;2023-02-26T09:49:53;102101.46;;;11.40;49.11
48888;BME280;42598;53.802;-1.632;2023-02-26T09:52:25;102105.16;;;10.58;47.21
48888;BME280;42598;53.802;-1.632;2023-02-26T09:54:57;102109.42;;;10.26;47.94
48888;BME280;42598;53.802;-1.632;2023-02-26T09:57:29;102110.30;;;9.03;50.27
48888;BME280;42598;53.802;-1.632;2023-02-26T09:59:58;102113.81;;;8.99;50.56
48888;BME280;42598;53.802;-1.632;2023-02-26T10:02:34;102116.61;;;7.96;52.45
48888;BME280;42598;53.802;-1.632;2023-02-26T10:05:15;102123.44;;;6.76;56.46
48888;BME280;42598;53.802;-1.632;2023-02-26T10:07:49;102123.37;;;7.54;55.66
48888;BME280;42598;53.802;-1.632;2023-02-26T10:10:27;102129.84;;;7.87;54.04
48888;BME280;42598;53.802;-1.632;2023-02-26T10:12:56;102133.61;;;8.30;53.65
48888;BME280;42598;53.802;-1.632;2023-02-26T10:15:27;102134.74;;;7.30;55.37
48888;BME280;42598;53.802;-1.632;2023-02-26T10:18:03;102135.77;;;8.34;53.75
48888;BME280;42598;53.802;-1.632;2023-02-26T10:20:38;102145.50;;;7.75;55.59
48888;BME280;42598;53.802;-1.632;2023-02-26T10:23:17;102155.05;;;7.37;55.53
48888;BME280;42598;53.802;-1.632;2023-02-26T10:25:48;102163.00;;;7.42;56.08
48888;BME280;42598;53.802;-1.632;2023-02-26T10:28:35;102170.69;;;7.66;56.41
48888;BME280;42598;53.802;-1.632;2023-02-26T10:31:11;102165.83;;;7.03;57.05
48888;BME280;42598;53.802;-1.632;2023-02-26T10:33:46;102173.35;;;6.49;60.25
48888;BME280;42598;53.802;-1.632;2023-02-26T10:36:22;102176.89;;;6.62;61.18
48888;BME280;42598;53.802;-1.632;2023-02-26T10:38:56;102172.30;;;7.16;62.04
48888;BME280;42598;53.802;-1.632;2023-02-26T10:41:29;102171.14;;;7.81;58.30
48888;BME280;42598;53.802;-1.632;2023-02-26T10:44:02;102173.67;;;7.74;57.18
48888;BME280;42598;53.802;-1.632;2023-02-26T10:46:39;102170.55;;;8.34;58.87
48888;BME280;42598;53.802;-1.632;2023-02-26T10:49:26;102175.83;;;7.32;61.01
48888;BME280;42598;53.802;-1.632;2023-02-26T10:51:56;102176.99;;;8.69;57.31
48888;BME280;42598;53.802;-1.632;2023-02-26T10:54:30;102174.61;;;7.14;61.23
48888;BME280;42598;53.802;-1.632;2023-02-26T10:56:59;102172.47;;;8.42;57.85
48888;BME280;42598;53.802;-1.632;2023-02-26T10:59:26;102175.20;;;7.79;59.25
48888;BME280;42598;53.802;-1.632;2023-02-26T11:01:54;102172.90;;;8.74;56.89
48888;BME280;42598;53.802;-1.632;2023-02-26T11:04:23;102173.36;;;8.40;56.89
48888;BME280;42598;53.802;-1.632;2023-02-26T11:06:54;102173.61;;;8.45;57.33
48888;BME280;42598;53.802;-1.632;2023-02-26T11:09:24;102171.71;;;9.48;54.17
48888;BME280;42598;53.802;-1.632;2023-02-26T11:11:54;102174.52;;;8.62;54.51
48888;BME280;42598;53.802;-1.632;2023-02-26T11:14:22;102171.57;;;9.72;53.00
48888;BME280;42598;53.802;-1.632;2023-02-26T11:16:54;102175.15;;;9.19;53.37
48888;BME280;42598;53.802;-1.632;2023-02-26T11:19:27;102182.74;;;10.17;50.24
48888;BME280;42598;53.802;-1.632;2023-02-26T11:21:55;102185.47;;;9.27;52.06
48888;BME280;42598;53.802;-1.632;2023-02-26T11:24:28;102183.61;;;10.08;47.61
48888;BME280;42598;53.802;-1.632;2023-02-26T11:26:58;102186.74;;;10.45;47.17
48888;BME280;42598;53.802;-1.632;2023-02-26T11:29:25;102190.02;;;10.91;47.13
48888;BME280;42598;53.802;-1.632;2023-02-26T11:31:53;102192.11;;;10.27;48.35
48888;BME280;42598;53.802;-1.632;2023-02-26T11:34:22;102193.83;;;11.67;46.32
48888;BME280;42598;53.802;-1.632;2023-02-26T11:36:50;102193.54;;;10.74;44.55
48888;BME280;42598;53.802;-1.632;2023-02-26T11:39:21;102194.43;;;11.51;43.39
48888;BME280;42598;53.802;-1.632;2023-02-26T11:41:51;102188.05;;;12.09;47.16
48888;BME280;42598;53.802;-1.632;2023-02-26T11:44:21;102181.30;;;13.25;41.51
48888;BME280;42598;53.802;-1.632;2023-02-26T11:46:55;102180.32;;;14.73;36.76
48888;BME280;42598;53.802;-1.632;2023-02-26T11:49:25;102187.64;;;14.68;35.04
48888;BME280;42598;53.802;-1.632;2023-02-26T11:52:04;102192.37;;;14.04;35.89
48888;BME280;42598;53.802;-1.632;2023-02-26T11:54:34;102193.09;;;13.44;35.74
48888;BME280;42598;53.802;-1.632;2023-02-26T11:57:15;102189.29;;;13.02;36.58
48888;BME280;42598;53.802;-1.632;2023-02-26T11:59:47;102197.73;;;11.44;37.41
48888;BME280;42598;53.802;-1.632;2023-02-26T12:02:19;102194.74;;;11.44;37.56
48888;BME280;42598;53.802;-1.632;2023-02-26T12:04:49;102200.55;;;10.81;37.57
48888;BME280;42598;53.802;-1.632;2023-02-26T12:07:18;102197.23;;;12.16;37.66
48888;BME280;42598;53.802;-1.632;2023-02-26T12:09:46;102203.33;;;10.84;38.59
48888;BME280;42598;53.802;-1.632;2023-02-26T12:12:23;102205.06;;;10.18;40.02
48888;BME280;42598;53.802;-1.632;2023-02-26T12:15:04;102206.14;;;9.96;41.20
48888;BME280;42598;53.802;-1.632;2023-02-26T12:17:48;102208.41;;;9.67;42.69
48888;BME280;42598;53.802;-1.632;2023-02-26T12:20:23;102215.03;;;10.24;41.69
48888;BME280;42598;53.802;-1.632;2023-02-26T12:23:05;102208.43;;;10.11;41.44
48888;BME280;42598;53.802;-1.632;2023-02-26T12:25:50;102204.93;;;9.10;43.83
48888;BME280;42598;53.802;-1.632;2023-02-26T12:28:35;102212.56;;;9.67;42.63
48888;BME280;42598;53.802;-1.632;2023-02-26T12:31:31;102219.14;;;8.90;44.64
48888;BME280;42598;53.802;-1.632;2023-02-26T12:34:13;102215.44;;;8.17;45.66
48888;BME280;42598;53.802;-1.632;2023-02-26T12:37:00;102217.47;;;8.43;45.61
48888;BME280;42598;53.802;-1.632;2023-02-26T12:39:42;102225.24;;;8.95;45.79
48888;BME280;42598;53.802;-1.632;2023-02-26T12:42:20;102227.77;;;9.30;45.82
48888;BME280;42598;53.802;-1.632;2023-02-26T12:45:11;102226.96;;;9.58;44.74
48888;BME280;42598;53.802;-1.632;2023-02-26T12:47:51;102223.90;;;9.90;44.51
48888;BME280;42598;53.802;-1.632;2023-02-26T12:50:33;102218.61;;;9.54;45.81
48888;BME280;42598;53.802;-1.632;2023-02-26T12:53:26;102217.26;;;9.43;46.09
48888;BME280;42598;53.802;-1.632;2023-02-26T12:56:12;102218.24;;;11.04;44.03
48888;BME280;42598;53.802;-1.632;2023-02-26T12:58:53;102226.78;;;11.44;42.52
48888;BME280;42598;53.802;-1.632;2023-02-26T13:01:35;102220.43;;;11.19;41.57
48888;BME280;42598;53.802;-1.632;2023-02-26T13:04:26;102224.68;;;11.12;42.39
48888;BME280;42598;53.802;-1.632;2023-02-26T13:07:13;102227.83;;;10.83;42.48
48888;BME280;42598;53.802;-1.632;2023-02-26T13:09:52;102225.10;;;11.66;41.90